sensor_id;sensor_type;location;lat;lon;timestamp;P1;durP1;ratioP1;P2;durP2;ratioP2
19940;SDS011;10132;50.864;5.176;2022-10-16T00:01:52;2.57;;;0.90;;
19940;SDS011;10132;50.864;5.176;2022-10-16T00:03:55;1.87;;;0.80;;
19940;SDS011;10132;50.864;5.176;2022-10-16T00:05:59;1.90;;;0.70;;
19940;SDS011;10132;50.864;5.176;2022-10-16T00:08:03;1.43;;;0.80;;
19940;SDS011;10132;50.864;5.176;2022-10-16T00:10:06;1.63;;;0.90;;
19940;SDS011;10132;50.864;5.176;2022-10-16T00:12:08;1.13;;;0.80;;
19940;SDS011;10132;50.864;5.176;2022-10-16T00:14:11;3.70;;;0.70;;
19940;SDS011;10132;50.864;5.176;2022-10-16T00:16:16;1.67;;;0.80;;
19940;SDS011;10132;50.864;5.176;2022-10-16T00:18:18;2.37;;;1.00;;
19940;SDS011;10132;50.864;5.176;2022-10-16T00:20:21;1.80;;;0.80;;
19940;SDS011;10132;50.864;5.176;2022-10-16T00:22:23;5.57;;;0.70;;
19940;SDS011;10132;50.864;5.176;2022-10-16T00:24:26;3.40;;;0.90;;
19940;SDS011;10132;50.864;5.176;2022-10-16T00:26:29;3.00;;;0.70;;
19940;SDS011;10132;50.864;5.176;2022-10-16T00:28:33;1.97;;;0.80;;
19940;SDS011;10132;50.864;5.176;2022-10-16T00:30:37;1.47;;;0.80;;
19940;SDS011;10132;50.864;5.176;2022-10-16T00:32:39;0.83;;;0.70;;
19940;SDS011;10132;50.864;5.176;2022-10-16T00:34:41;3.90;;;1.00;;
19940;SDS011;10132;50.864;5.176;2022-10-16T00:36:44;1.33;;;0.67;;
19940;SDS011;10132;50.864;5.176;2022-10-16T00:38:46;1.90;;;0.93;;
19940;SDS011;10132;50.864;5.176;2022-10-16T00:40:49;2.70;;;0.80;;
19940;SDS011;10132;50.864;5.176;2022-10-16T00:42:52;1.17;;;0.60;;
19940;SDS011;10132;50.864;5.176;2022-10-16T00:44:55;2.10;;;0.73;;
19940;SDS011;10132;50.864;5.176;2022-10-16T00:46:57;1.37;;;0.63;;
19940;SDS011;10132;50.864;5.176;2022-10-16T00:49:00;1.70;;;0.70;;
19940;SDS011;10132;50.864;5.176;2022-10-16T00:51:05;3.20;;;0.70;;
19940;SDS011;10132;50.864;5.176;2022-10-16T00:53:08;1.27;;;0.70;;
19940;SDS011;10132;50.864;5.176;2022-10-16T00:55:13;1.87;;;0.90;;
19940;SDS011;10132;50.864;5.176;2022-10-16T00:57:16;2.80;;;0.73;;
19940;SDS011;10132;50.864;5.176;2022-10-16T00:59:19;0.80;;;0.80;;
19940;SDS011;10132;50.864;5.176;2022-10-16T01:01:25;1.50;;;0.73;;
19940;SDS011;10132;50.864;5.176;2022-10-16T01:03:28;1.33;;;0.80;;
19940;SDS011;10132;50.864;5.176;2022-10-16T01:05:33;2.93;;;1.00;;
19940;SDS011;10132;50.864;5.176;2022-10-16T01:07:43;1.23;;;0.90;;
19940;SDS011;10132;50.864;5.176;2022-10-16T01:09:55;1.73;;;0.70;;
19940;SDS011;10132;50.864;5.176;2022-10-16T01:12:06;3.50;;;0.80;;
19940;SDS011;10132;50.864;5.176;2022-10-16T01:14:17;1.33;;;0.80;;
19940;SDS011;10132;50.864;5.176;2022-10-16T01:16:26;1.97;;;1.03;;
19940;SDS011;10132;50.864;5.176;2022-10-16T01:18:37;3.43;;;1.00;;
19940;SDS011;10132;50.864;5.176;2022-10-16T01:20:46;2.30;;;1.00;;
19940;SDS011;10132;50.864;5.176;2022-10-16T01:23:01;1.80;;;0.90;;
19940;SDS011;10132;50.864;5.176;2022-10-16T01:25:14;1.87;;;0.80;;
19940;SDS011;10132;50.864;5.176;2022-10-16T01:29:43;1.90;;;0.90;;
19940;SDS011;10132;50.864;5.176;2022-10-16T01:31:53;1.33;;;0.80;;
19940;SDS011;10132;50.864;5.176;2022-10-16T01:34:00;1.67;;;0.83;;
19940;SDS011;10132;50.864;5.176;2022-10-16T01:36:07;1.53;;;0.87;;
19940;SDS011;10132;50.864;5.176;2022-10-16T01:38:14;2.27;;;0.90;;
19940;SDS011;10132;50.864;5.176;2022-10-16T01:40:20;1.70;;;0.90;;
19940;SDS011;10132;50.864;5.176;2022-10-16T01:42:28;3.83;;;0.90;;
19940;SDS011;10132;50.864;5.176;2022-10-16T01:44:36;2.17;;;0.87;;
19940;SDS011;10132;50.864;5.176;2022-10-16T01:46:41;1.20;;;0.80;;
19940;SDS011;10132;50.864;5.176;2022-10-16T01:48:46;3.47;;;1.10;;
19940;SDS011;10132;50.864;5.176;2022-10-16T01:50:53;2.40;;;0.80;;
19940;SDS011;10132;50.864;5.176;2022-10-16T01:53:00;1.10;;;0.70;;
19940;SDS011;10132;50.864;5.176;2022-10-16T01:55:06;3.63;;;1.00;;
19940;SDS011;10132;50.864;5.176;2022-10-16T01:57:11;0.90;;;0.70;;
19940;SDS011;10132;50.864;5.176;2022-10-16T01:59:15;0.83;;;0.73;;
19940;SDS011;10132;50.864;5.176;2022-10-16T02:01:23;3.00;;;0.77;;
19940;SDS011;10132;50.864;5.176;2022-10-16T02:03:28;3.17;;;1.00;;
19940;SDS011;10132;50.864;5.176;2022-10-16T02:05:30;1.03;;;0.83;;
19940;SDS011;10132;50.864;5.176;2022-10-16T02:07:35;1.33;;;0.93;;
19940;SDS011;10132;50.864;5.176;2022-10-16T02:09:37;1.67;;;0.90;;
19940;SDS011;10132;50.864;5.176;2022-10-16T02:11:40;5.17;;;1.20;;
19940;SDS011;10132;50.864;5.176;2022-10-16T02:13:43;2.13;;;1.10;;
19940;SDS011;10132;50.864;5.176;2022-10-16T02:15:49;3.97;;;0.93;;
19940;SDS011;10132;50.864;5.176;2022-10-16T02:17:53;1.83;;;1.13;;
19940;SDS011;10132;50.864;5.176;2022-10-16T02:19:55;3.00;;;0.80;;
19940;SDS011;10132;50.864;5.176;2022-10-16T02:22:00;1.03;;;0.80;;
19940;SDS011;10132;50.864;5.176;2022-10-16T02:24:06;1.60;;;0.93;;
19940;SDS011;10132;50.864;5.176;2022-10-16T02:26:14;1.00;;;0.90;;
19940;SDS011;10132;50.864;5.176;2022-10-16T02:28:22;1.90;;;1.10;;
19940;SDS011;10132;50.864;5.176;2022-10-16T02:30:30;3.47;;;1.10;;
19940;SDS011;10132;50.864;5.176;2022-10-16T02:32:37;3.43;;;1.10;;
19940;SDS011;10132;50.864;5.176;2022-10-16T02:34:43;1.77;;;1.00;;
19940;SDS011;10132;50.864;5.176;2022-10-16T02:36:46;3.07;;;1.03;;
19940;SDS011;10132;50.864;5.176;2022-10-16T02:38:49;1.73;;;1.20;;
19940;SDS011;10132;50.864;5.176;2022-10-16T02:40:52;5.10;;;1.30;;
19940;SDS011;10132;50.864;5.176;2022-10-16T02:42:55;2.27;;;1.20;;
19940;SDS011;10132;50.864;5.176;2022-10-16T02:44:58;1.33;;;1.00;;
19940;SDS011;10132;50.864;5.176;2022-10-16T02:47:00;2.57;;;1.07;;
19940;SDS011;10132;50.864;5.176;2022-10-16T02:49:02;2.07;;;1.00;;
19940;SDS011;10132;50.864;5.176;2022-10-16T02:51:06;4.20;;;1.20;;
19940;SDS011;10132;50.864;5.176;2022-10-16T02:53:08;1.10;;;1.00;;
19940;SDS011;10132;50.864;5.176;2022-10-16T02:55:11;2.83;;;1.07;;
19940;SDS011;10132;50.864;5.176;2022-10-16T02:57:13;1.50;;;1.10;;
19940;SDS011;10132;50.864;5.176;2022-10-16T02:59:16;1.40;;;1.00;;
19940;SDS011;10132;50.864;5.176;2022-10-16T03:01:19;1.87;;;0.93;;
19940;SDS011;10132;50.864;5.176;2022-10-16T03:03:21;2.50;;;1.00;;
19940;SDS011;10132;50.864;5.176;2022-10-16T03:05:23;1.67;;;0.93;;
19940;SDS011;10132;50.864;5.176;2022-10-16T03:07:27;2.70;;;1.10;;
19940;SDS011;10132;50.864;5.176;2022-10-16T03:09:29;2.53;;;1.00;;
19940;SDS011;10132;50.864;5.176;2022-10-16T03:11:31;3.07;;;0.97;;
19940;SDS011;10132;50.864;5.176;2022-10-16T03:13:34;1.80;;;1.07;;
19940;SDS011;10132;50.864;5.176;2022-10-16T03:15:36;4.60;;;1.13;;
19940;SDS011;10132;50.864;5.176;2022-10-16T03:17:38;2.00;;;1.07;;
19940;SDS011;10132;50.864;5.176;2022-10-16T03:19:41;5.60;;;0.93;;
19940;SDS011;10132;50.864;5.176;2022-10-16T03:21:43;2.00;;;1.23;;
19940;SDS011;10132;50.864;5.176;2022-10-16T03:23:46;1.17;;;0.90;;
19940;SDS011;10132;50.864;5.176;2022-10-16T03:25:49;1.93;;;1.00;;
19940;SDS011;10132;50.864;5.176;2022-10-16T03:27:51;2.10;;;1.03;;
19940;SDS011;10132;50.864;5.176;2022-10-16T03:29:53;3.07;;;1.07;;
19940;SDS011;10132;50.864;5.176;2022-10-16T03:31:55;1.33;;;1.23;;
19940;SDS011;10132;50.864;5.176;2022-10-16T03:33:58;1.37;;;1.10;;
19940;SDS011;10132;50.864;5.176;2022-10-16T03:36:00;3.87;;;1.20;;
19940;SDS011;10132;50.864;5.176;2022-10-16T03:38:02;2.60;;;1.10;;
19940;SDS011;10132;50.864;5.176;2022-10-16T03:40:07;1.77;;;0.90;;
19940;SDS011;10132;50.864;5.176;2022-10-16T03:42:10;2.50;;;1.17;;
19940;SDS011;10132;50.864;5.176;2022-10-16T03:44:13;2.50;;;1.10;;
19940;SDS011;10132;50.864;5.176;2022-10-16T03:46:15;1.23;;;1.13;;
19940;SDS011;10132;50.864;5.176;2022-10-16T03:48:17;4.63;;;1.20;;
19940;SDS011;10132;50.864;5.176;2022-10-16T03:50:20;1.57;;;1.20;;
19940;SDS011;10132;50.864;5.176;2022-10-16T03:52:22;3.70;;;1.20;;
19940;SDS011;10132;50.864;5.176;2022-10-16T03:54:24;1.70;;;1.10;;
19940;SDS011;10132;50.864;5.176;2022-10-16T03:56:29;2.17;;;1.17;;
19940;SDS011;10132;50.864;5.176;2022-10-16T03:58:31;1.20;;;1.10;;
19940;SDS011;10132;50.864;5.176;2022-10-16T04:00:34;4.93;;;1.30;;
19940;SDS011;10132;50.864;5.176;2022-10-16T04:02:36;2.60;;;1.40;;
19940;SDS011;10132;50.864;5.176;2022-10-16T04:04:38;1.97;;;1.30;;
19940;SDS011;10132;50.864;5.176;2022-10-16T04:06:40;2.20;;;1.30;;
19940;SDS011;10132;50.864;5.176;2022-10-16T04:08:43;3.10;;;1.47;;
19940;SDS011;10132;50.864;5.176;2022-10-16T04:10:46;2.30;;;1.20;;
19940;SDS011;10132;50.864;5.176;2022-10-16T04:12:49;3.17;;;1.30;;
19940;SDS011;10132;50.864;5.176;2022-10-16T04:14:52;5.17;;;1.50;;
19940;SDS011;10132;50.864;5.176;2022-10-16T04:16:54;3.73;;;1.43;;
19940;SDS011;10132;50.864;5.176;2022-10-16T04:18:56;4.53;;;1.60;;
19940;SDS011;10132;50.864;5.176;2022-10-16T04:21:02;3.00;;;1.37;;
19940;SDS011;10132;50.864;5.176;2022-10-16T04:23:05;2.10;;;1.40;;
19940;SDS011;10132;50.864;5.176;2022-10-16T04:25:07;4.83;;;1.40;;
19940;SDS011;10132;50.864;5.176;2022-10-16T04:27:11;4.63;;;1.40;;
19940;SDS011;10132;50.864;5.176;2022-10-16T04:29:15;2.70;;;1.43;;
19940;SDS011;10132;50.864;5.176;2022-10-16T04:31:17;2.23;;;1.73;;
19940;SDS011;10132;50.864;5.176;2022-10-16T04:33:20;4.20;;;1.40;;
19940;SDS011;10132;50.864;5.176;2022-10-16T04:35:22;2.60;;;1.50;;
19940;SDS011;10132;50.864;5.176;2022-10-16T04:37:24;4.87;;;1.63;;
19940;SDS011;10132;50.864;5.176;2022-10-16T04:39:26;4.10;;;1.83;;
19940;SDS011;10132;50.864;5.176;2022-10-16T04:41:28;3.00;;;1.70;;
19940;SDS011;10132;50.864;5.176;2022-10-16T04:43:30;2.97;;;1.70;;
19940;SDS011;10132;50.864;5.176;2022-10-16T04:45:34;1.60;;;1.50;;
19940;SDS011;10132;50.864;5.176;2022-10-16T04:47:37;3.07;;;1.67;;
19940;SDS011;10132;50.864;5.176;2022-10-16T04:49:39;3.77;;;2.00;;
19940;SDS011;10132;50.864;5.176;2022-10-16T04:51:41;4.10;;;1.87;;
19940;SDS011;10132;50.864;5.176;2022-10-16T04:53:44;2.07;;;1.60;;
19940;SDS011;10132;50.864;5.176;2022-10-16T04:55:46;4.10;;;1.90;;
19940;SDS011;10132;50.864;5.176;2022-10-16T04:57:48;3.20;;;2.00;;
19940;SDS011;10132;50.864;5.176;2022-10-16T04:59:50;4.13;;;1.40;;
19940;SDS011;10132;50.864;5.176;2022-10-16T05:01:54;4.27;;;1.80;;
19940;SDS011;10132;50.864;5.176;2022-10-16T05:03:56;3.27;;;1.90;;
19940;SDS011;10132;50.864;5.176;2022-10-16T05:05:58;3.40;;;1.80;;
19940;SDS011;10132;50.864;5.176;2022-10-16T05:08:00;6.60;;;2.03;;
19940;SDS011;10132;50.864;5.176;2022-10-16T05:10:03;3.03;;;1.80;;
19940;SDS011;10132;50.864;5.176;2022-10-16T05:12:06;2.53;;;1.77;;
19940;SDS011;10132;50.864;5.176;2022-10-16T05:14:08;4.10;;;1.80;;
19940;SDS011;10132;50.864;5.176;2022-10-16T05:16:10;3.67;;;2.37;;
19940;SDS011;10132;50.864;5.176;2022-10-16T05:18:14;2.87;;;1.70;;
19940;SDS011;10132;50.864;5.176;2022-10-16T05:20:17;2.70;;;1.93;;
19940;SDS011;10132;50.864;5.176;2022-10-16T05:22:19;3.50;;;2.00;;
19940;SDS011;10132;50.864;5.176;2022-10-16T05:24:21;2.10;;;1.80;;
19940;SDS011;10132;50.864;5.176;2022-10-16T05:26:23;2.83;;;2.00;;
19940;SDS011;10132;50.864;5.176;2022-10-16T05:28:26;4.63;;;1.90;;
19940;SDS011;10132;50.864;5.176;2022-10-16T05:30:29;3.03;;;1.80;;
19940;SDS011;10132;50.864;5.176;2022-10-16T05:32:31;3.03;;;1.90;;
19940;SDS011;10132;50.864;5.176;2022-10-16T05:34:34;3.60;;;1.73;;
19940;SDS011;10132;50.864;5.176;2022-10-16T05:36:36;3.23;;;2.13;;
19940;SDS011;10132;50.864;5.176;2022-10-16T05:38:39;3.93;;;1.90;;
19940;SDS011;10132;50.864;5.176;2022-10-16T05:40:41;3.40;;;2.20;;
19940;SDS011;10132;50.864;5.176;2022-10-16T05:42:43;5.67;;;1.90;;
19940;SDS011;10132;50.864;5.176;2022-10-16T05:44:45;2.90;;;1.77;;
19940;SDS011;10132;50.864;5.176;2022-10-16T05:46:49;3.67;;;2.20;;
19940;SDS011;10132;50.864;5.176;2022-10-16T05:48:51;3.77;;;1.73;;
19940;SDS011;10132;50.864;5.176;2022-10-16T05:50:59;3.07;;;1.80;;
19940;SDS011;10132;50.864;5.176;2022-10-16T05:53:02;5.70;;;2.00;;
19940;SDS011;10132;50.864;5.176;2022-10-16T05:55:05;3.17;;;1.73;;
19940;SDS011;10132;50.864;5.176;2022-10-16T05:57:07;5.53;;;2.00;;
19940;SDS011;10132;50.864;5.176;2022-10-16T05:59:11;2.83;;;2.03;;
19940;SDS011;10132;50.864;5.176;2022-10-16T06:01:14;5.60;;;2.30;;
19940;SDS011;10132;50.864;5.176;2022-10-16T06:03:18;3.77;;;1.93;;
19940;SDS011;10132;50.864;5.176;2022-10-16T06:05:20;6.70;;;2.10;;
19940;SDS011;10132;50.864;5.176;2022-10-16T06:07:24;3.47;;;2.20;;
19940;SDS011;10132;50.864;5.176;2022-10-16T06:09:27;3.53;;;1.87;;
19940;SDS011;10132;50.864;5.176;2022-10-16T06:11:30;4.30;;;1.90;;
19940;SDS011;10132;50.864;5.176;2022-10-16T06:13:33;4.70;;;2.10;;
19940;SDS011;10132;50.864;5.176;2022-10-16T06:15:36;4.03;;;2.10;;
19940;SDS011;10132;50.864;5.176;2022-10-16T06:17:39;3.10;;;1.80;;
19940;SDS011;10132;50.864;5.176;2022-10-16T06:19:41;2.67;;;2.00;;
19940;SDS011;10132;50.864;5.176;2022-10-16T06:21:43;5.43;;;2.10;;
19940;SDS011;10132;50.864;5.176;2022-10-16T06:23:47;2.70;;;1.90;;
19940;SDS011;10132;50.864;5.176;2022-10-16T06:25:49;6.27;;;2.20;;
19940;SDS011;10132;50.864;5.176;2022-10-16T06:27:51;2.57;;;1.87;;
19940;SDS011;10132;50.864;5.176;2022-10-16T06:29:54;3.33;;;1.90;;
19940;SDS011;10132;50.864;5.176;2022-10-16T06:31:56;7.50;;;2.47;;
19940;SDS011;10132;50.864;5.176;2022-10-16T06:33:58;5.53;;;2.03;;
19940;SDS011;10132;50.864;5.176;2022-10-16T06:36:01;2.37;;;1.80;;
19940;SDS011;10132;50.864;5.176;2022-10-16T06:38:04;5.57;;;2.57;;
19940;SDS011;10132;50.864;5.176;2022-10-16T06:40:08;3.90;;;2.10;;
19940;SDS011;10132;50.864;5.176;2022-10-16T06:42:10;3.20;;;2.00;;
19940;SDS011;10132;50.864;5.176;2022-10-16T06:44:13;5.17;;;2.13;;
19940;SDS011;10132;50.864;5.176;2022-10-16T06:46:15;2.80;;;1.93;;
19940;SDS011;10132;50.864;5.176;2022-10-16T06:48:19;3.43;;;1.80;;
19940;SDS011;10132;50.864;5.176;2022-10-16T06:50:21;4.60;;;1.97;;
19940;SDS011;10132;50.864;5.176;2022-10-16T06:52:23;3.47;;;1.90;;
19940;SDS011;10132;50.864;5.176;2022-10-16T06:54:25;3.90;;;2.13;;
19940;SDS011;10132;50.864;5.176;2022-10-16T06:56:29;3.10;;;2.20;;
19940;SDS011;10132;50.864;5.176;2022-10-16T06:58:32;4.20;;;2.00;;
19940;SDS011;10132;50.864;5.176;2022-10-16T07:00:34;1.87;;;1.70;;
19940;SDS011;10132;50.864;5.176;2022-10-16T07:02:37;4.33;;;2.07;;
19940;SDS011;10132;50.864;5.176;2022-10-16T07:04:39;3.80;;;1.67;;
19940;SDS011;10132;50.864;5.176;2022-10-16T07:06:41;5.87;;;1.80;;
19940;SDS011;10132;50.864;5.176;2022-10-16T07:08:43;3.53;;;1.80;;
19940;SDS011;10132;50.864;5.176;2022-10-16T07:10:47;2.50;;;1.83;;
19940;SDS011;10132;50.864;5.176;2022-10-16T07:12:50;3.70;;;1.73;;
19940;SDS011;10132;50.864;5.176;2022-10-16T07:14:53;2.10;;;1.43;;
19940;SDS011;10132;50.864;5.176;2022-10-16T07:16:56;2.93;;;1.70;;
19940;SDS011;10132;50.864;5.176;2022-10-16T07:18:59;2.47;;;1.40;;
19940;SDS011;10132;50.864;5.176;2022-10-16T07:21:05;1.77;;;1.40;;
19940;SDS011;10132;50.864;5.176;2022-10-16T07:23:08;2.70;;;1.57;;
19940;SDS011;10132;50.864;5.176;2022-10-16T07:25:10;2.47;;;1.60;;
19940;SDS011;10132;50.864;5.176;2022-10-16T07:27:12;3.13;;;1.70;;
19940;SDS011;10132;50.864;5.176;2022-10-16T07:29:18;1.70;;;1.30;;
19940;SDS011;10132;50.864;5.176;2022-10-16T07:31:22;2.40;;;1.30;;
19940;SDS011;10132;50.864;5.176;2022-10-16T07:33:24;3.03;;;1.50;;
19940;SDS011;10132;50.864;5.176;2022-10-16T07:35:26;2.57;;;1.50;;
19940;SDS011;10132;50.864;5.176;2022-10-16T07:37:29;2.70;;;1.30;;
19940;SDS011;10132;50.864;5.176;2022-10-16T07:39:31;1.60;;;1.50;;
19940;SDS011;10132;50.864;5.176;2022-10-16T07:41:33;3.63;;;1.50;;
19940;SDS011;10132;50.864;5.176;2022-10-16T07:43:36;4.83;;;1.40;;
19940;SDS011;10132;50.864;5.176;2022-10-16T07:45:47;2.93;;;1.47;;
19940;SDS011;10132;50.864;5.176;2022-10-16T07:47:50;3.33;;;1.50;;
19940;SDS011;10132;50.864;5.176;2022-10-16T07:49:52;2.93;;;1.70;;
19940;SDS011;10132;50.864;5.176;2022-10-16T07:51:54;4.57;;;1.40;;
19940;SDS011;10132;50.864;5.176;2022-10-16T07:53:56;1.87;;;1.30;;
19940;SDS011;10132;50.864;5.176;2022-10-16T07:55:58;3.73;;;1.30;;
19940;SDS011;10132;50.864;5.176;2022-10-16T07:58:01;1.93;;;1.27;;
19940;SDS011;10132;50.864;5.176;2022-10-16T08:00:03;3.13;;;1.40;;
19940;SDS011;10132;50.864;5.176;2022-10-16T08:02:14;3.10;;;1.47;;
19940;SDS011;10132;50.864;5.176;2022-10-16T08:04:16;2.90;;;1.60;;
19940;SDS011;10132;50.864;5.176;2022-10-16T08:06:19;3.93;;;1.80;;
19940;SDS011;10132;50.864;5.176;2022-10-16T08:08:22;5.40;;;1.60;;
19940;SDS011;10132;50.864;5.176;2022-10-16T08:10:25;3.70;;;1.40;;
19940;SDS011;10132;50.864;5.176;2022-10-16T08:12:28;2.67;;;1.60;;
19940;SDS011;10132;50.864;5.176;2022-10-16T08:14:30;4.97;;;1.50;;
19940;SDS011;10132;50.864;5.176;2022-10-16T08:16:32;3.10;;;1.30;;
19940;SDS011;10132;50.864;5.176;2022-10-16T08:18:36;1.67;;;1.30;;
19940;SDS011;10132;50.864;5.176;2022-10-16T08:20:39;2.70;;;1.50;;
19940;SDS011;10132;50.864;5.176;2022-10-16T08:22:42;4.43;;;1.47;;
19940;SDS011;10132;50.864;5.176;2022-10-16T08:24:44;3.13;;;1.40;;
19940;SDS011;10132;50.864;5.176;2022-10-16T08:26:46;2.53;;;1.38;;
19940;SDS011;10132;50.864;5.176;2022-10-16T08:28:49;2.22;;;1.25;;
19940;SDS011;10132;50.864;5.176;2022-10-16T08:30:51;3.08;;;1.52;;
19940;SDS011;10132;50.864;5.176;2022-10-16T08:32:54;2.77;;;1.40;;
19940;SDS011;10132;50.864;5.176;2022-10-16T08:34:59;3.83;;;1.60;;
19940;SDS011;10132;50.864;5.176;2022-10-16T08:37:01;3.42;;;1.30;;
19940;SDS011;10132;50.864;5.176;2022-10-16T08:39:04;3.00;;;1.50;;
19940;SDS011;10132;50.864;5.176;2022-10-16T08:41:19;4.47;;;1.20;;
19940;SDS011;10132;50.864;5.176;2022-10-16T08:43:58;3.35;;;1.30;;
19940;SDS011;10132;50.864;5.176;2022-10-16T08:46:26;3.55;;;1.20;;
19940;SDS011;10132;50.864;5.176;2022-10-16T08:48:40;2.67;;;1.38;;
19940;SDS011;10132;50.864;5.176;2022-10-16T08:50:48;2.70;;;1.10;;
19940;SDS011;10132;50.864;5.176;2022-10-16T08:52:53;3.28;;;1.10;;
19940;SDS011;10132;50.864;5.176;2022-10-16T08:54:56;3.10;;;1.63;;
19940;SDS011;10132;50.864;5.176;2022-10-16T08:57:00;7.13;;;1.48;;
19940;SDS011;10132;50.864;5.176;2022-10-16T08:59:11;4.43;;;1.63;;
19940;SDS011;10132;50.864;5.176;2022-10-16T09:01:15;4.75;;;1.38;;
19940;SDS011;10132;50.864;5.176;2022-10-16T09:03:24;5.45;;;1.50;;
19940;SDS011;10132;50.864;5.176;2022-10-16T09:08:08;4.93;;;1.58;;
19940;SDS011;10132;50.864;5.176;2022-10-16T09:10:22;4.18;;;1.10;;
19940;SDS011;10132;50.864;5.176;2022-10-16T09:12:36;6.38;;;1.30;;
19940;SDS011;10132;50.864;5.176;2022-10-16T09:14:49;2.70;;;1.20;;
19940;SDS011;10132;50.864;5.176;2022-10-16T09:17:00;3.13;;;1.30;;
19940;SDS011;10132;50.864;5.176;2022-10-16T09:19:15;1.88;;;1.15;;
19940;SDS011;10132;50.864;5.176;2022-10-16T09:21:27;4.88;;;1.20;;
19940;SDS011;10132;50.864;5.176;2022-10-16T09:23:33;4.63;;;1.45;;
19940;SDS011;10132;50.864;5.176;2022-10-16T09:25:37;4.03;;;1.15;;
19940;SDS011;10132;50.864;5.176;2022-10-16T09:27:44;3.10;;;1.30;;
19940;SDS011;10132;50.864;5.176;2022-10-16T09:29:48;4.00;;;1.20;;
19940;SDS011;10132;50.864;5.176;2022-10-16T09:31:51;4.30;;;1.33;;
19940;SDS011;10132;50.864;5.176;2022-10-16T09:33:57;4.18;;;1.23;;
19940;SDS011;10132;50.864;5.176;2022-10-16T09:36:04;4.20;;;1.25;;
19940;SDS011;10132;50.864;5.176;2022-10-16T09:38:08;5.70;;;1.65;;
19940;SDS011;10132;50.864;5.176;2022-10-16T09:40:24;4.28;;;1.45;;
19940;SDS011;10132;50.864;5.176;2022-10-16T09:42:31;4.20;;;1.42;;
19940;SDS011;10132;50.864;5.176;2022-10-16T09:44:36;4.45;;;1.27;;
19940;SDS011;10132;50.864;5.176;2022-10-16T09:46:39;4.30;;;1.30;;
19940;SDS011;10132;50.864;5.176;2022-10-16T09:48:43;3.28;;;1.20;;
19940;SDS011;10132;50.864;5.176;2022-10-16T09:50:55;2.78;;;1.20;;
19940;SDS011;10132;50.864;5.176;2022-10-16T09:53:04;3.85;;;1.25;;
19940;SDS011;10132;50.864;5.176;2022-10-16T09:55:14;3.60;;;1.35;;
19940;SDS011;10132;50.864;5.176;2022-10-16T09:57:18;3.53;;;1.10;;
19940;SDS011;10132;50.864;5.176;2022-10-16T09:59:21;5.18;;;1.55;;
19940;SDS011;10132;50.864;5.176;2022-10-16T10:01:28;5.88;;;1.70;;
19940;SDS011;10132;50.864;5.176;2022-10-16T10:03:37;3.67;;;1.60;;
19940;SDS011;10132;50.864;5.176;2022-10-16T10:05:40;3.97;;;1.38;;
19940;SDS011;10132;50.864;5.176;2022-10-16T10:07:54;3.95;;;1.30;;
19940;SDS011;10132;50.864;5.176;2022-10-16T10:09:59;4.80;;;1.25;;
19940;SDS011;10132;50.864;5.176;2022-10-16T10:12:04;3.85;;;1.15;;
19940;SDS011;10132;50.864;5.176;2022-10-16T10:14:11;3.40;;;1.13;;
19940;SDS011;10132;50.864;5.176;2022-10-16T10:16:23;5.00;;;1.30;;
19940;SDS011;10132;50.864;5.176;2022-10-16T10:18:25;2.95;;;1.30;;
19940;SDS011;10132;50.864;5.176;2022-10-16T10:20:28;7.78;;;1.30;;
19940;SDS011;10132;50.864;5.176;2022-10-16T10:22:39;1.65;;;1.00;;
19940;SDS011;10132;50.864;5.176;2022-10-16T10:24:44;5.68;;;1.20;;
19940;SDS011;10132;50.864;5.176;2022-10-16T10:26:56;3.90;;;1.23;;
19940;SDS011;10132;50.864;5.176;2022-10-16T10:29:11;4.90;;;1.30;;
19940;SDS011;10132;50.864;5.176;2022-10-16T10:31:25;3.58;;;1.10;;
19940;SDS011;10132;50.864;5.176;2022-10-16T10:33:37;3.38;;;1.42;;
19940;SDS011;10132;50.864;5.176;2022-10-16T10:35:44;2.40;;;1.15;;
19940;SDS011;10132;50.864;5.176;2022-10-16T10:38:03;3.10;;;1.05;;
19940;SDS011;10132;50.864;5.176;2022-10-16T10:40:21;2.90;;;1.08;;
19940;SDS011;10132;50.864;5.176;2022-10-16T10:42:33;5.70;;;1.30;;
19940;SDS011;10132;50.864;5.176;2022-10-16T10:44:57;5.38;;;1.60;;
19940;SDS011;10132;50.864;5.176;2022-10-16T10:47:19;3.05;;;1.00;;
19940;SDS011;10132;50.864;5.176;2022-10-16T10:49:39;6.25;;;1.15;;
19940;SDS011;10132;50.864;5.176;2022-10-16T10:51:52;3.58;;;1.27;;
19940;SDS011;10132;50.864;5.176;2022-10-16T10:54:06;4.78;;;1.42;;
19940;SDS011;10132;50.864;5.176;2022-10-16T10:56:19;3.60;;;1.02;;
19940;SDS011;10132;50.864;5.176;2022-10-16T10:58:42;3.97;;;0.98;;
19940;SDS011;10132;50.864;5.176;2022-10-16T11:01:01;5.30;;;1.13;;
19940;SDS011;10132;50.864;5.176;2022-10-16T11:03:13;4.30;;;1.02;;
19940;SDS011;10132;50.864;5.176;2022-10-16T11:05:31;3.95;;;1.20;;
19940;SDS011;10132;50.864;5.176;2022-10-16T11:07:42;7.10;;;1.52;;
19940;SDS011;10132;50.864;5.176;2022-10-16T11:09:51;3.60;;;0.95;;
19940;SDS011;10132;50.864;5.176;2022-10-16T11:11:57;5.35;;;1.20;;
19940;SDS011;10132;50.864;5.176;2022-10-16T11:14:04;3.25;;;1.40;;
19940;SDS011;10132;50.864;5.176;2022-10-16T11:16:13;1.48;;;0.90;;
19940;SDS011;10132;50.864;5.176;2022-10-16T11:18:19;3.00;;;1.10;;
19940;SDS011;10132;50.864;5.176;2022-10-16T11:20:26;5.30;;;1.25;;
19940;SDS011;10132;50.864;5.176;2022-10-16T11:22:32;3.95;;;0.90;;
19940;SDS011;10132;50.864;5.176;2022-10-16T11:24:40;2.10;;;0.93;;
19940;SDS011;10132;50.864;5.176;2022-10-16T11:26:47;4.85;;;1.10;;
19940;SDS011;10132;50.864;5.176;2022-10-16T11:28:53;6.97;;;1.48;;
19940;SDS011;10132;50.864;5.176;2022-10-16T11:31:02;2.22;;;1.30;;
19940;SDS011;10132;50.864;5.176;2022-10-16T11:33:17;4.47;;;1.00;;
19940;SDS011;10132;50.864;5.176;2022-10-16T11:35:32;3.13;;;1.00;;
19940;SDS011;10132;50.864;5.176;2022-10-16T11:37:40;3.55;;;1.10;;
19940;SDS011;10132;50.864;5.176;2022-10-16T11:39:45;3.97;;;1.10;;
19940;SDS011;10132;50.864;5.176;2022-10-16T11:41:49;3.92;;;1.40;;
19940;SDS011;10132;50.864;5.176;2022-10-16T11:44:00;4.57;;;1.55;;
19940;SDS011;10132;50.864;5.176;2022-10-16T11:46:12;1.58;;;0.90;;
19940;SDS011;10132;50.864;5.176;2022-10-16T11:48:21;2.78;;;1.00;;
19940;SDS011;10132;50.864;5.176;2022-10-16T11:50:29;3.72;;;1.10;;
19940;SDS011;10132;50.864;5.176;2022-10-16T11:52:36;3.92;;;1.15;;
19940;SDS011;10132;50.864;5.176;2022-10-16T11:54:45;1.98;;;1.05;;
19940;SDS011;10132;50.864;5.176;2022-10-16T11:56:53;3.22;;;1.10;;
19940;SDS011;10132;50.864;5.176;2022-10-16T11:59:05;3.20;;;1.25;;
19940;SDS011;10132;50.864;5.176;2022-10-16T12:01:17;3.72;;;1.10;;
19940;SDS011;10132;50.864;5.176;2022-10-16T12:03:25;2.55;;;1.00;;
19940;SDS011;10132;50.864;5.176;2022-10-16T12:05:33;2.58;;;0.90;;
19940;SDS011;10132;50.864;5.176;2022-10-16T12:07:54;3.33;;;1.13;;
19940;SDS011;10132;50.864;5.176;2022-10-16T12:10:10;5.28;;;1.20;;
19940;SDS011;10132;50.864;5.176;2022-10-16T12:12:23;2.78;;;1.00;;
19940;SDS011;10132;50.864;5.176;2022-10-16T12:14:38;2.33;;;1.10;;
19940;SDS011;10132;50.864;5.176;2022-10-16T12:16:51;2.17;;;0.95;;
19940;SDS011;10132;50.864;5.176;2022-10-16T12:21:13;1.48;;;0.80;;
19940;SDS011;10132;50.864;5.176;2022-10-16T12:23:19;2.40;;;0.70;;
19940;SDS011;10132;50.864;5.176;2022-10-16T12:25:24;2.10;;;0.80;;
19940;SDS011;10132;50.864;5.176;2022-10-16T12:27:29;2.45;;;0.70;;
19940;SDS011;10132;50.864;5.176;2022-10-16T12:29:35;2.50;;;0.80;;
19940;SDS011;10132;50.864;5.176;2022-10-16T12:31:39;2.72;;;1.00;;
19940;SDS011;10132;50.864;5.176;2022-10-16T12:33:56;3.88;;;1.02;;
19940;SDS011;10132;50.864;5.176;2022-10-16T12:36:01;2.25;;;0.90;;
19940;SDS011;10132;50.864;5.176;2022-10-16T12:38:12;3.78;;;1.00;;
19940;SDS011;10132;50.864;5.176;2022-10-16T12:40:25;3.55;;;1.15;;
19940;SDS011;10132;50.864;5.176;2022-10-16T12:42:33;4.00;;;1.25;;
19940;SDS011;10132;50.864;5.176;2022-10-16T12:44:36;6.70;;;1.10;;